Time;durP1;ratioP1;P1;durP2;ratioP2;P2;SDS_P1;SDS_P2;PMS_P1;PMS_P2;Temp;Humidity;BMP_temperature;BMP_pressure;BME280_temperature;BME280_humidity;BME280_pressure;Samples;Min_cycle;Max_cycle;Signal;HPM_P1;HPM_P2
2022/08/16 00:00:35;;;;;;;14.88;11.70;;;;;;;;;;5112002;27;20020;-82
2022/08/16 00:03:01;;;;;;;14.30;10.70;;;;;;;;;;5087695;28;20051;-83
2022/08/16 00:05:28;;;;;;;13.13;11.48;;;;;;;;;;5086398;28;20023;-85
2022/08/16 00:07:55;;;;;;;17.80;12.25;;;;;;;;;;5086715;28;20017;-84
2022/08/16 00:10:21;;;;;;;14.20;12.13;;;;;;;;;;5087017;28;20024;-80
2022/08/16 00:12:47;;;;;;;16.40;12.63;;;;;;;;;;5086938;28;20028;-83
2022/08/16 00:15:24;;;;;;;15.45;12.00;;;;;;;;;;5085058;28;20028;-80
2022/08/16 00:17:51;;;;;;;17.83;11.85;;;;;;;;;;5084450;28;20027;-84
2022/08/16 00:20:20;;;;;;;15.15;11.25;;;;;;;;;;5109209;27;20020;-81
2022/08/16 00:22:46;;;;;;;16.42;11.35;;;;;;;;;;5111291;27;20036;-84
2022/08/16 00:25:14;;;;;;;15.45;11.57;;;;;;;;;;5084581;28;20542;-82
2022/08/16 00:27:41;;;;;;;18.77;10.90;;;;;;;;;;5086078;28;20499;-83
2022/08/16 00:30:08;;;;;;;15.45;11.82;;;;;;;;;;5085906;28;20022;-83
2022/08/16 00:32:35;;;;;;;16.23;12.05;;;;;;;;;;5084347;28;20024;-83
2022/08/16 00:35:01;;;;;;;14.82;12.85;;;;;;;;;;5088288;28;20515;-83
2022/08/16 00:37:27;;;;;;;16.13;12.88;;;;;;;;;;5113418;27;20127;-84
2022/08/16 00:39:54;;;;;;;16.90;12.10;;;;;;;;;;5088931;28;20035;-81
2022/08/16 00:42:20;;;;;;;14.63;11.68;;;;;;;;;;5115078;27;20028;-84
2022/08/16 00:44:52;;;;;;;18.67;12.50;;;;;;;;;;5088643;28;20089;-82
2022/08/16 00:47:18;;;;;;;13.18;11.73;;;;;;;;;;5114036;27;20035;-84
2022/08/16 00:49:44;;;;;;;14.85;13.25;;;;;;;;;;5089733;28;21242;-83
2022/08/16 00:52:11;;;;;;;15.90;11.63;;;;;;;;;;5088483;28;20028;-83
2022/08/16 00:54:37;;;;;;;15.02;13.25;;;;;;;;;;5090028;28;20051;-81
2022/08/16 00:57:03;;;;;;;16.50;12.55;;;;;;;;;;5087358;28;20041;-83
2022/08/16 00:59:32;;;;;;;14.48;11.25;;;;;;;;;;5089126;28;20024;-82
2022/08/16 01:01:59;;;;;;;13.60;11.00;;;;;;;;;;5113233;27;20024;-81
2022/08/16 01:04:26;;;;;;;13.75;11.23;;;;;;;;;;5088254;28;20036;-84
2022/08/16 01:06:53;;;;;;;14.23;11.68;;;;;;;;;;5113064;27;20048;-83
2022/08/16 01:09:19;;;;;;;15.50;13.20;;;;;;;;;;5089226;28;20024;-84
2022/08/16 01:11:46;;;;;;;16.45;12.68;;;;;;;;;;5115105;27;20121;-82
2022/08/16 01:14:23;;;;;;;14.20;12.70;;;;;;;;;;5113378;27;20069;-84
2022/08/16 01:16:49;;;;;;;18.38;11.30;;;;;;;;;;5089201;28;20039;-82
2022/08/16 01:19:19;;;;;;;15.20;11.38;;;;;;;;;;5113037;27;20382;-84
2022/08/16 01:21:54;;;;;;;14.75;10.18;;;;;;;;;;5088904;28;20060;-83
2022/08/16 01:24:26;;;;;;;14.65;12.07;;;;;;;;;;5089849;28;20040;-83
2022/08/16 01:26:54;;;;;;;12.68;11.25;;;;;;;;;;5096561;28;20479;-84
2022/08/16 01:29:27;;;;;;;12.52;10.98;;;;;;;;;;5094442;28;20028;-82
2022/08/16 01:31:53;;;;;;;12.85;10.07;;;;;;;;;;5092603;28;20016;-83
2022/08/16 01:34:19;;;;;;;18.63;11.30;;;;;;;;;;5091863;28;20040;-83
2022/08/16 01:36:45;;;;;;;16.48;10.80;;;;;;;;;;5096848;28;20428;-82
2022/08/16 01:39:14;;;;;;;16.17;11.65;;;;;;;;;;5127101;27;20107;-85
2022/08/16 01:41:40;;;;;;;14.95;11.60;;;;;;;;;;5131369;27;20024;-83
2022/08/16 01:44:07;;;;;;;13.25;10.93;;;;;;;;;;5086013;28;20036;-82
2022/08/16 01:46:38;;;;;;;15.70;10.40;;;;;;;;;;5127112;27;20019;-80
2022/08/16 01:49:12;;;;;;;18.13;11.60;;;;;;;;;;5095451;28;20047;-82
2022/08/16 01:51:38;;;;;;;;;;;;;;;;;;5093187;28;20032;-80
2022/08/16 01:54:04;;;;;;;13.15;10.95;;;;;;;;;;5095140;28;19930;-80
2022/08/16 01:56:31;;;;;;;13.32;11.18;;;;;;;;;;5091950;28;20024;-80
2022/08/16 01:58:57;;;;;;;13.25;11.23;;;;;;;;;;5099484;28;20139;-83
2022/08/16 02:01:24;;;;;;;14.00;11.63;;;;;;;;;;5091176;28;20043;-82
2022/08/16 02:03:50;;;;;;;13.48;11.65;;;;;;;;;;5121024;27;20089;-82
2022/08/16 02:06:17;;;;;;;12.55;10.32;;;;;;;;;;5092073;28;20375;-81
2022/08/16 02:08:43;;;;;;;13.63;11.85;;;;;;;;;;5119885;27;20069;-81
2022/08/16 02:11:09;;;;;;;17.20;11.32;;;;;;;;;;5093531;28;20031;-81
2022/08/16 02:13:41;;;;;;;12.93;10.98;;;;;;;;;;5093616;28;20017;-82
2022/08/16 02:16:11;;;;;;;18.43;10.70;;;;;;;;;;5092644;28;20372;-82
2022/08/16 02:18:37;;;;;;;13.40;10.52;;;;;;;;;;5089166;28;20111;-82
2022/08/16 02:21:05;;;;;;;13.02;11.63;;;;;;;;;;5090443;28;20052;-80
2022/08/16 02:23:32;;;;;;;13.75;10.57;;;;;;;;;;5114961;27;20562;-82
2022/08/16 02:25:58;;;;;;;13.32;10.73;;;;;;;;;;5116333;27;20132;-81
2022/08/16 02:28:25;;;;;;;13.00;11.05;;;;;;;;;;5092271;28;20016;-81
2022/08/16 02:30:51;;;;;;;17.35;11.43;;;;;;;;;;5124721;27;20020;-80
2022/08/16 02:33:18;;;;;;;12.52;10.60;;;;;;;;;;5091631;28;20107;-80
2022/08/16 02:35:44;;;;;;;12.75;11.18;;;;;;;;;;5091139;28;20039;-81
2022/08/16 02:38:10;;;;;;;15.45;11.07;;;;;;;;;;5091625;28;20093;-82
2022/08/16 02:40:38;;;;;;;14.18;11.63;;;;;;;;;;5122750;27;20641;-82
2022/08/16 02:43:04;;;;;;;13.93;11.90;;;;;;;;;;5091135;28;20036;-82
2022/08/16 02:45:30;;;;;;;18.45;11.35;;;;;;;;;;5090446;28;20031;-82
2022/08/16 02:47:57;;;;;;;23.98;14.20;;;;;;;;;;5090428;28;20370;-85
2022/08/16 02:50:23;;;;;;;13.82;10.23;;;;;;;;;;5090966;28;20823;-85
2022/08/16 02:52:49;;;;;;;15.20;12.43;;;;;;;;;;5097094;28;20021;-84
2022/08/16 02:55:16;;;;;;;16.77;11.50;;;;;;;;;;5094468;28;20655;-82
2022/08/16 02:57:42;;;;;;;14.70;10.95;;;;;;;;;;5113642;27;20044;-82
2022/08/16 03:00:12;;;;;;;12.90;11.48;;;;;;;;;;5119695;27;20056;-83
2022/08/16 03:02:39;;;;;;;13.20;11.68;;;;;;;;;;5119608;27;20111;-82
2022/08/16 03:05:05;;;;;;;15.63;10.75;;;;;;;;;;5094177;28;20027;-83
2022/08/16 03:07:31;;;;;;;20.67;12.20;;;;;;;;;;5094430;28;20467;-82
2022/08/16 03:09:57;;;;;;;14.75;13.25;;;;;;;;;;5091198;28;20020;-82
2022/08/16 03:12:24;;;;;;;22.20;14.45;;;;;;;;;;5092634;28;20020;-83
2022/08/16 03:14:50;;;;;;;12.93;11.45;;;;;;;;;;5115906;27;20124;-83
2022/08/16 03:17:16;;;;;;;12.60;11.27;;;;;;;;;;5091064;28;20027;-83
2022/08/16 03:19:42;;;;;;;16.15;11.70;;;;;;;;;;5094723;28;20015;-82
2022/08/16 03:22:09;;;;;;;13.45;12.05;;;;;;;;;;5089986;28;20044;-82
2022/08/16 03:24:35;;;;;;;15.75;11.20;;;;;;;;;;5118134;27;20039;-81
2022/08/16 03:27:01;;;;;;;17.60;11.38;;;;;;;;;;5090060;28;20024;-81
2022/08/16 03:29:30;;;;;;;18.30;10.80;;;;;;;;;;5092860;28;20031;-80
2022/08/16 03:31:56;;;;;;;19.67;11.43;;;;;;;;;;5123075;27;20051;-81
2022/08/16 03:34:22;;;;;;;16.30;11.73;;;;;;;;;;5092670;28;20034;-81
2022/08/16 03:36:48;;;;;;;20.02;11.63;;;;;;;;;;5079606;28;20025;-82
2022/08/16 03:39:14;;;;;;;16.63;9.95;;;;;;;;;;5109521;27;20024;-82
2022/08/16 03:41:41;;;;;;;12.45;10.48;;;;;;;;;;5125877;27;20035;-83
2022/08/16 03:44:07;;;;;;;16.77;11.43;;;;;;;;;;5111503;27;20395;-82
2022/08/16 03:46:33;;;;;;;16.52;10.90;;;;;;;;;;5121905;27;20378;-82
2022/08/16 03:49:00;;;;;;;12.07;10.20;;;;;;;;;;5091556;28;20024;-83
2022/08/16 03:51:26;;;;;;;13.32;10.43;;;;;;;;;;5118740;27;20032;-82
2022/08/16 03:53:52;;;;;;;14.63;10.20;;;;;;;;;;5088961;28;20024;-82
2022/08/16 03:56:19;;;;;;;12.68;9.52;;;;;;;;;;5090016;28;20028;-81
2022/08/16 03:58:45;;;;;;;19.38;12.45;;;;;;;;;;5120067;27;20047;-81
2022/08/16 04:01:11;;;;;;;15.27;10.63;;;;;;;;;;5090890;28;20099;-82
2022/08/16 04:03:37;;;;;;;20.02;12.60;;;;;;;;;;5096019;28;20035;-81
2022/08/16 04:06:03;;;;;;;16.17;10.93;;;;;;;;;;5091610;28;20027;-80
2022/08/16 04:08:30;;;;;;;13.20;10.90;;;;;;;;;;5091559;28;20552;-80
2022/08/16 04:10:56;;;;;;;14.77;11.93;;;;;;;;;;5121664;27;20106;-79
2022/08/16 04:13:22;;;;;;;20.63;11.90;;;;;;;;;;5088183;28;20020;-80
2022/08/16 04:15:48;;;;;;;15.43;10.52;;;;;;;;;;5089061;28;20119;-82
2022/08/16 04:18:16;;;;;;;15.38;10.85;;;;;;;;;;5091405;28;20103;-82
2022/08/16 04:20:42;;;;;;;13.82;9.73;;;;;;;;;;5125336;27;20051;-83
2022/08/16 04:23:08;;;;;;;19.38;10.43;;;;;;;;;;5091967;28;20395;-81
2022/08/16 04:25:34;;;;;;;15.32;10.75;;;;;;;;;;5091310;28;20055;-81
2022/08/16 04:28:01;;;;;;;16.95;10.20;;;;;;;;;;5091277;28;20065;-81
2022/08/16 04:30:27;;;;;;;20.33;11.15;;;;;;;;;;5125174;27;20054;-80
2022/08/16 04:32:53;;;;;;;15.75;11.48;;;;;;;;;;5123906;28;20024;-82
2022/08/16 04:35:21;;;;;;;22.67;11.23;;;;;;;;;;5091356;28;20024;-83
2022/08/16 04:37:48;;;;;;;16.73;12.05;;;;;;;;;;5125771;27;20020;-83
2022/08/16 04:40:14;;;;;;;13.57;11.10;;;;;;;;;;5092179;28;20013;-82
2022/08/16 04:42:41;;;;;;;21.95;12.13;;;;;;;;;;5105279;28;20020;-81
2022/08/16 04:45:09;;;;;;;19.52;12.25;;;;;;;;;;5092375;28;20016;-84
2022/08/16 04:47:35;;;;;;;18.27;11.15;;;;;;;;;;5121272;28;20077;-80
2022/08/16 04:50:21;;;;;;;22.42;11.75;;;;;;;;;;5090253;28;20037;-78
2022/08/16 04:52:48;;;;;;;23.70;12.10;;;;;;;;;;5090446;28;20029;-76
2022/08/16 04:55:17;;;;;;;16.33;11.55;;;;;;;;;;5110126;27;20356;-80
2022/08/16 04:57:44;;;;;;;18.70;11.43;;;;;;;;;;5125264;28;20115;-81
2022/08/16 05:00:12;;;;;;;25.52;12.35;;;;;;;;;;5124833;27;20024;-81
2022/08/16 05:02:39;;;;;;;18.17;11.27;;;;;;;;;;5122228;28;20024;-79
2022/08/16 05:05:05;;;;;;;17.75;12.80;;;;;;;;;;5090825;28;20477;-81
2022/08/16 05:07:32;;;;;;;21.08;11.43;;;;;;;;;;5090737;28;20031;-80
2022/08/16 05:09:58;;;;;;;18.30;12.68;;;;;;;;;;5096128;28;20016;-81
2022/08/16 05:12:24;;;;;;;21.30;11.70;;;;;;;;;;5099021;28;20025;-80
2022/08/16 05:14:50;;;;;;;20.30;12.48;;;;;;;;;;5090100;28;20475;-79
2022/08/16 05:17:16;;;;;;;15.55;11.98;;;;;;;;;;5083006;28;20061;-80
2022/08/16 05:19:42;;;;;;;18.40;12.75;;;;;;;;;;5090515;28;20328;-85
2022/08/16 05:22:08;;;;;;;13.98;11.93;;;;;;;;;;5127924;27;20059;-82
2022/08/16 05:24:34;;;;;;;18.95;13.07;;;;;;;;;;5127518;27;20067;-77
2022/08/16 05:27:00;;;;;;;24.33;13.00;;;;;;;;;;5121126;27;20020;-79
2022/08/16 05:29:26;;;;;;;22.00;13.73;;;;;;;;;;5086485;28;20069;-79
2022/08/16 05:31:52;;;;;;;23.33;11.70;;;;;;;;;;5093848;28;20483;-76
2022/08/16 05:34:20;;;;;;;15.82;10.98;;;;;;;;;;5093816;28;20043;-76
2022/08/16 05:36:48;;;;;;;17.52;12.27;;;;;;;;;;5094146;28;20016;-78
2022/08/16 05:39:14;;;;;;;15.55;12.40;;;;;;;;;;5093589;28;20036;-79
2022/08/16 05:41:40;;;;;;;18.58;13.27;;;;;;;;;;5094225;28;20474;-78
2022/08/16 05:44:09;;;;;;;19.27;12.02;;;;;;;;;;5092420;28;20036;-78
2022/08/16 05:46:35;;;;;;;16.50;12.07;;;;;;;;;;5093835;28;20017;-78
2022/08/16 05:49:03;;;;;;;19.50;13.05;;;;;;;;;;5094009;28;20024;-79
2022/08/16 05:51:29;;;;;;;17.67;10.55;;;;;;;;;;5107646;28;20554;-79
2022/08/16 05:53:55;;;;;;;18.35;11.95;;;;;;;;;;5126720;27;20021;-78
2022/08/16 05:56:21;;;;;;;17.27;12.45;;;;;;;;;;5093615;28;20100;-79
2022/08/16 05:58:47;;;;;;;18.90;13.20;;;;;;;;;;5094165;28;20020;-79
2022/08/16 06:01:13;;;;;;;18.63;11.07;;;;;;;;;;5126871;27;20020;-77
2022/08/16 06:03:39;;;;;;;21.63;12.82;;;;;;;;;;5092159;28;20039;-79
2022/08/16 06:06:06;;;;;;;19.83;11.70;;;;;;;;;;5093667;28;20026;-77
2022/08/16 06:08:32;;;;;;;13.90;11.82;;;;;;;;;;5113425;27;20384;-79
2022/08/16 06:10:58;;;;;;;19.98;12.80;;;;;;;;;;5083795;28;20025;-78
2022/08/16 06:13:24;;;;;;;19.67;12.38;;;;;;;;;;5118491;27;20021;-79
2022/08/16 06:15:50;;;;;;;18.65;11.55;;;;;;;;;;5086209;28;20038;-80
2022/08/16 06:18:18;;;;;;;15.70;10.98;;;;;;;;;;5092320;28;20012;-79
2022/08/16 06:20:44;;;;;;;16.13;11.43;;;;;;;;;;5092149;28;20445;-78
2022/08/16 06:23:11;;;;;;;32.67;12.48;;;;;;;;;;5126781;27;20036;-78
2022/08/16 06:25:37;;;;;;;15.40;11.18;;;;;;;;;;5092069;28;20030;-78
2022/08/16 06:28:04;;;;;;;18.90;12.32;;;;;;;;;;5092000;28;20024;-79
2022/08/16 06:30:31;;;;;;;15.80;10.98;;;;;;;;;;5093364;28;20028;-79
2022/08/16 06:32:58;;;;;;;19.05;12.80;;;;;;;;;;5118087;27;20038;-78
2022/08/16 06:35:24;;;;;;;16.25;11.88;;;;;;;;;;5092308;28;20450;-79
2022/08/16 06:37:50;;;;;;;13.05;10.32;;;;;;;;;;5125748;27;20020;-78
2022/08/16 06:40:16;;;;;;;17.08;11.07;;;;;;;;;;5113564;27;20020;-78
2022/08/16 06:42:42;;;;;;;14.77;10.73;;;;;;;;;;5126189;27;20020;-80
2022/08/16 06:45:09;;;;;;;12.40;9.65;;;;;;;;;;5125575;27;20534;-78
2022/08/16 06:47:35;;;;;;;16.48;11.18;;;;;;;;;;5081616;28;20073;-79
2022/08/16 06:50:01;;;;;;;13.00;10.38;;;;;;;;;;5087261;28;20028;-77
2022/08/16 06:52:31;;;;;;;27.75;11.23;;;;;;;;;;5091611;28;20028;-79
2022/08/16 06:54:58;;;;;;;17.90;11.30;;;;;;;;;;5091717;28;20020;-78
2022/08/16 06:57:24;;;;;;;13.45;10.60;;;;;;;;;;5126201;27;20047;-78
2022/08/16 06:59:50;;;;;;;15.48;10.40;;;;;;;;;;5092028;28;20382;-78
2022/08/16 07:02:17;;;;;;;15.13;10.82;;;;;;;;;;5140131;27;20070;-77
2022/08/16 07:04:43;;;;;;;19.05;9.48;;;;;;;;;;5090706;28;20050;-79
2022/08/16 07:07:09;;;;;;;16.77;11.00;;;;;;;;;;5091225;28;20036;-79
2022/08/16 07:09:35;;;;;;;16.30;10.50;;;;;;;;;;5125543;27;20016;-78
2022/08/16 07:12:02;;;;;;;17.92;10.75;;;;;;;;;;5088807;28;20055;-79
2022/08/16 07:14:28;;;;;;;21.42;11.35;;;;;;;;;;5091132;28;20052;-79
2022/08/16 07:16:56;;;;;;;19.17;10.00;;;;;;;;;;5125065;27;20077;-78
2022/08/16 07:19:22;;;;;;;13.85;10.98;;;;;;;;;;5124838;27;20110;-78
2022/08/16 07:21:49;;;;;;;14.18;11.65;;;;;;;;;;5080321;28;20091;-79
2022/08/16 07:24:16;;;;;;;14.55;9.82;;;;;;;;;;5122319;27;20164;-80
2022/08/16 07:26:43;;;;;;;17.35;11.50;;;;;;;;;;5091842;28;20047;-77
2022/08/16 07:29:09;;;;;;;17.23;9.75;;;;;;;;;;5090590;28;20091;-79
2022/08/16 07:31:35;;;;;;;19.67;11.95;;;;;;;;;;5113815;27;20067;-78
2022/08/16 07:34:01;;;;;;;18.40;11.15;;;;;;;;;;5089117;28;20083;-77
2022/08/16 07:36:28;;;;;;;24.08;11.85;;;;;;;;;;5092076;28;20024;-80
2022/08/16 07:38:54;;;;;;;24.45;13.50;;;;;;;;;;5090370;28;20383;-79
2022/08/16 07:41:20;;;;;;;19.70;11.32;;;;;;;;;;5092237;28;20052;-79
2022/08/16 07:43:46;;;;;;;17.73;12.85;;;;;;;;;;5078024;28;20032;-78
2022/08/16 07:46:12;;;;;;;21.85;11.20;;;;;;;;;;5109191;27;20024;-78
2022/08/16 07:48:38;;;;;;;14.18;10.93;;;;;;;;;;5116718;27;20375;-80
2022/08/16 07:51:04;;;;;;;17.52;10.55;;;;;;;;;;5117609;27;20024;-79
2022/08/16 07:53:33;;;;;;;15.23;10.65;;;;;;;;;;5118363;27;20028;-77
2022/08/16 07:56:00;;;;;;;18.63;11.07;;;;;;;;;;5082286;28;20020;-78
2022/08/16 07:58:27;;;;;;;15.20;10.07;;;;;;;;;;5087430;28;20030;-78
2022/08/16 08:00:53;;;;;;;15.30;9.10;;;;;;;;;;5091940;28;20024;-80
2022/08/16 08:03:19;;;;;;;15.27;9.65;;;;;;;;;;5107541;27;20047;-79
2022/08/16 08:05:45;;;;;;;14.45;10.75;;;;;;;;;;5112494;27;20020;-79
2022/08/16 08:08:12;;;;;;;10.65;9.13;;;;;;;;;;5077188;28;20052;-79
2022/08/16 08:10:38;;;;;;;13.80;8.43;;;;;;;;;;5090362;28;20073;-77
2022/08/16 08:13:04;;;;;;;18.00;10.50;;;;;;;;;;5124667;27;20038;-78
2022/08/16 08:15:30;;;;;;;12.30;9.00;;;;;;;;;;5091333;28;20027;-76
2022/08/16 08:17:56;;;;;;;11.18;9.88;;;;;;;;;;5124287;28;20074;-78
2022/08/16 08:20:25;;;;;;;14.02;9.20;;;;;;;;;;5081906;28;20032;-76
2022/08/16 08:22:52;;;;;;;19.95;9.95;;;;;;;;;;5088952;28;20024;-77
2022/08/16 08:25:19;;;;;;;16.88;9.98;;;;;;;;;;5091037;28;20028;-78
2022/08/16 08:27:46;;;;;;;21.67;10.90;;;;;;;;;;5121324;28;20058;-79
2022/08/16 08:30:12;;;;;;;18.02;9.82;;;;;;;;;;5118670;28;20013;-81
2022/08/16 08:32:38;;;;;;;16.52;9.90;;;;;;;;;;5099825;28;20105;-77
2022/08/16 08:35:05;;;;;;;16.23;9.20;;;;;;;;;;5124045;28;20059;-77
2022/08/16 08:37:35;;;;;;;13.40;8.23;;;;;;;;;;5087148;28;20028;-81
2022/08/16 08:40:02;;;;;;;15.55;8.63;;;;;;;;;;5118498;28;20039;-78
2022/08/16 08:42:28;;;;;;;10.35;8.38;;;;;;;;;;5113479;28;20016;-81
2022/08/16 08:44:54;;;;;;;13.15;8.13;;;;;;;;;;5090474;28;20033;-80
2022/08/16 08:47:21;;;;;;;13.23;7.82;;;;;;;;;;5117806;28;20066;-77
2022/08/16 08:49:47;;;;;;;11.43;8.05;;;;;;;;;;5084989;28;20095;-80
2022/08/16 08:52:14;;;;;;;12.27;6.72;;;;;;;;;;5081460;28;20034;-77
2022/08/16 08:54:41;;;;;;;9.90;7.30;;;;;;;;;;5088233;28;20022;-77
2022/08/16 08:57:07;;;;;;;13.25;8.15;;;;;;;;;;5094092;28;20023;-77
2022/08/16 08:59:34;;;;;;;12.18;8.13;;;;;;;;;;5091687;28;20089;-76
2022/08/16 09:02:00;;;;;;;11.40;8.43;;;;;;;;;;5078287;28;20430;-77
2022/08/16 09:04:27;;;;;;;20.70;8.48;;;;;;;;;;5092401;28;20399;-78
2022/08/16 09:06:53;;;;;;;14.10;7.85;;;;;;;;;;5083201;28;20364;-77
2022/08/16 09:09:20;;;;;;;9.63;7.40;;;;;;;;;;5115665;27;20064;-77
2022/08/16 09:11:46;;;;;;;9.93;6.95;;;;;;;;;;5091162;28;20016;-79
2022/08/16 09:14:12;;;;;;;11.40;6.60;;;;;;;;;;5113290;27;20078;-79
2022/08/16 09:16:38;;;;;;;14.05;6.97;;;;;;;;;;5097481;28;20116;-77
2022/08/16 09:19:04;;;;;;;10.10;7.25;;;;;;;;;;5089474;28;20028;-78
2022/08/16 09:21:30;;;;;;;9.30;7.57;;;;;;;;;;5110764;27;20055;-77
2022/08/16 09:23:56;;;;;;;12.63;7.30;;;;;;;;;;5087825;28;20036;-78
2022/08/16 09:26:23;;;;;;;13.75;7.15;;;;;;;;;;5111129;27;20028;-77
2022/08/16 09:28:50;;;;;;;12.00;7.10;;;;;;;;;;5094709;28;20016;-78
2022/08/16 09:31:16;;;;;;;13.00;7.65;;;;;;;;;;5125358;27;20047;-79
2022/08/16 09:33:43;;;;;;;10.70;6.88;;;;;;;;;;5093467;28;20012;-78
2022/08/16 09:36:09;;;;;;;19.67;7.97;;;;;;;;;;5094372;28;20020;-78
2022/08/16 09:38:38;;;;;;;12.52;8.13;;;;;;;;;;5081147;28;20021;-76
2022/08/16 09:41:05;;;;;;;10.48;7.68;;;;;;;;;;5088798;28;20020;-78
2022/08/16 09:43:32;;;;;;;9.27;7.05;;;;;;;;;;5089553;28;20114;-83
2022/08/16 09:45:59;;;;;;;13.57;7.35;;;;;;;;;;5085286;28;20020;-77
2022/08/16 09:48:25;;;;;;;8.57;6.65;;;;;;;;;;5092368;28;20070;-77
2022/08/16 09:50:51;;;;;;;11.15;6.03;;;;;;;;;;5127364;27;20024;-77
2022/08/16 09:53:19;;;;;;;11.50;7.15;;;;;;;;;;5107242;28;20092;-76
2022/08/16 09:55:47;;;;;;;12.77;6.35;;;;;;;;;;5093131;28;20123;-76
2022/08/16 09:58:13;;;;;;;9.02;6.05;;;;;;;;;;5079700;28;20028;-77
2022/08/16 10:00:39;;;;;;;13.18;6.07;;;;;;;;;;5126351;27;20470;-76
2022/08/16 10:03:05;;;;;;;11.98;6.40;;;;;;;;;;5092647;28;20491;-78
2022/08/16 10:05:36;;;;;;;10.77;6.38;;;;;;;;;;5127398;27;20403;-79
2022/08/16 10:08:06;;;;;;;10.93;6.13;;;;;;;;;;5126527;27;20016;-77
2022/08/16 10:10:33;;;;;;;8.25;7.30;;;;;;;;;;5093706;28;20099;-76
2022/08/16 10:13:11;;;;;;;16.45;6.72;;;;;;;;;;5096515;28;20020;-77
2022/08/16 10:15:38;;;;;;;11.68;6.18;;;;;;;;;;5126541;27;20100;-79
2022/08/16 10:18:07;;;;;;;13.20;6.57;;;;;;;;;;5093608;28;20020;-80
2022/08/16 10:20:35;;;;;;;13.70;7.60;;;;;;;;;;5117206;27;20479;-77
2022/08/16 10:23:06;;;;;;;11.23;7.20;;;;;;;;;;5087294;28;20052;-78
2022/08/16 10:25:32;;;;;;;14.35;6.15;;;;;;;;;;5091929;28;20028;-78
2022/08/16 10:27:59;;;;;;;11.32;5.93;;;;;;;;;;5091923;28;20028;-78
2022/08/16 10:30:25;;;;;;;14.50;6.10;;;;;;;;;;5125837;27;20023;-77
2022/08/16 10:32:51;;;;;;;7.95;6.03;;;;;;;;;;5127045;27;20379;-80
2022/08/16 10:35:17;;;;;;;12.35;5.57;;;;;;;;;;5122358;27;20107;-81
2022/08/16 10:37:43;;;;;;;11.95;6.40;;;;;;;;;;5124382;27;20012;-78
2022/08/16 10:40:10;;;;;;;9.07;5.90;;;;;;;;;;5113718;27;20543;-82
2022/08/16 10:42:36;;;;;;;7.70;5.50;;;;;;;;;;5113212;27;20103;-79
2022/08/16 10:45:03;;;;;;;11.02;5.65;;;;;;;;;;5089785;28;20028;-80
2022/08/16 10:47:29;;;;;;;6.80;5.22;;;;;;;;;;5101310;28;20065;-79
2022/08/16 10:49:58;;;;;;;10.70;5.55;;;;;;;;;;5119164;27;20379;-78
2022/08/16 10:52:24;;;;;;;12.18;6.13;;;;;;;;;;5129497;27;20017;-78
2022/08/16 10:54:50;;;;;;;10.82;5.40;;;;;;;;;;5125893;27;20050;-81
2022/08/16 10:57:19;;;;;;;13.27;6.13;;;;;;;;;;5091441;28;20016;-77
2022/08/16 10:59:45;;;;;;;11.30;5.75;;;;;;;;;;5092155;28;20496;-79
2022/08/16 11:02:11;;;;;;;12.38;5.38;;;;;;;;;;5104883;28;20016;-80
2022/08/16 11:04:37;;;;;;;6.82;4.50;;;;;;;;;;5139609;27;20118;-77
2022/08/16 11:07:04;;;;;;;7.65;4.55;;;;;;;;;;5072642;28;20455;-79
2022/08/16 11:09:31;;;;;;;6.38;4.63;;;;;;;;;;5116939;27;20028;-78
2022/08/16 11:11:57;;;;;;;10.23;4.85;;;;;;;;;;5111364;27;20036;-79
2022/08/16 11:14:23;;;;;;;5.70;4.03;;;;;;;;;;5091520;28;20020;-78
2022/08/16 11:16:50;;;;;;;11.45;4.65;;;;;;;;;;5091694;28;20016;-80
2022/08/16 11:19:16;;;;;;;6.55;4.47;;;;;;;;;;5125090;27;20024;-78
2022/08/16 11:21:43;;;;;;;8.05;4.53;;;;;;;;;;5125345;27;20044;-79
2022/08/16 11:24:10;;;;;;;18.23;4.75;;;;;;;;;;5119245;27;20028;-79
2022/08/16 11:26:38;;;;;;;5.82;4.20;;;;;;;;;;5083244;28;20348;-77
2022/08/16 11:29:06;;;;;;;5.97;4.07;;;;;;;;;;5107190;28;20027;-78
2022/08/16 11:31:32;;;;;;;8.15;3.45;;;;;;;;;;5124662;27;20035;-78
2022/08/16 11:33:58;;;;;;;4.70;3.70;;;;;;;;;;5074170;28;20471;-78
2022/08/16 11:36:24;;;;;;;9.57;4.82;;;;;;;;;;5086047;28;20066;-79
2022/08/16 11:38:51;;;;;;;5.68;4.30;;;;;;;;;;5091065;28;20077;-79
2022/08/16 11:41:17;;;;;;;7.05;4.20;;;;;;;;;;5111549;27;20124;-77
2022/08/16 11:43:45;;;;;;;11.85;4.78;;;;;;;;;;5090312;28;20055;-77
2022/08/16 11:46:12;;;;;;;7.20;3.72;;;;;;;;;;5090883;28;20027;-79
2022/08/16 11:48:38;;;;;;;7.13;4.10;;;;;;;;;;5117631;27;20062;-78
2022/08/16 11:51:07;;;;;;;8.23;4.18;;;;;;;;;;5084640;28;20024;-77
2022/08/16 11:53:36;;;;;;;5.57;3.70;;;;;;;;;;5091718;28;20039;-76
2022/08/16 11:56:02;;;;;;;8.02;4.07;;;;;;;;;;5125188;27;20024;-77
2022/08/16 11:58:30;;;;;;;7.70;4.53;;;;;;;;;;5109369;28;20391;-79
2022/08/16 12:00:56;;;;;;;5.82;3.70;;;;;;;;;;5090850;28;20048;-76
2022/08/16 12:03:24;;;;;;;10.85;4.28;;;;;;;;;;5088177;28;20491;-76
2022/08/16 12:05:52;;;;;;;9.73;4.18;;;;;;;;;;5114587;27;20472;-77
2022/08/16 12:08:19;;;;;;;7.13;3.75;;;;;;;;;;5089938;28;20016;-79
2022/08/16 12:10:45;;;;;;;7.43;3.83;;;;;;;;;;5123302;27;20904;-78
2022/08/16 12:13:12;;;;;;;8.02;4.28;;;;;;;;;;5090842;28;20024;-78
2022/08/16 12:15:39;;;;;;;6.43;4.50;;;;;;;;;;5090083;28;20020;-77
2022/08/16 12:18:05;;;;;;;9.38;3.95;;;;;;;;;;5123156;28;20016;-78
2022/08/16 12:20:33;;;;;;;4.07;3.42;;;;;;;;;;5090148;28;20069;-77
2022/08/16 12:22:59;;;;;;;7.75;3.97;;;;;;;;;;5114972;28;20016;-77
2022/08/16 12:25:27;;;;;;;6.80;4.18;;;;;;;;;;5090369;28;20024;-79
2022/08/16 12:27:54;;;;;;;6.30;3.58;;;;;;;;;;5090372;28;20043;-77
2022/08/16 12:30:23;;;;;;;8.15;3.78;;;;;;;;;;5092034;28;20085;-77
2022/08/16 12:32:49;;;;;;;7.75;3.90;;;;;;;;;;5086030;28;20044;-77
2022/08/16 12:35:17;;;;;;;5.18;3.50;;;;;;;;;;5119042;27;20027;-78
2022/08/16 12:37:44;;;;;;;5.38;3.38;;;;;;;;;;5092700;28;20020;-77
2022/08/16 12:40:11;;;;;;;5.43;3.30;;;;;;;;;;5080058;28;20075;-78
2022/08/16 12:42:37;;;;;;;6.03;3.95;;;;;;;;;;5089235;28;20024;-76
2022/08/16 12:45:09;;;;;;;6.30;4.13;;;;;;;;;;5093072;28;20047;-77
2022/08/16 12:50:19;;;;;;;7.97;3.25;;;;;;;;;;5080419;28;20051;-77
2022/08/16 12:52:45;;;;;;;7.65;4.55;;;;;;;;;;5125774;27;20031;-78
2022/08/16 12:55:12;;;;;;;9.70;4.13;;;;;;;;;;5125446;27;20016;-78
2022/08/16 12:57:38;;;;;;;4.70;3.38;;;;;;;;;;5093079;28;20364;-77
2022/08/16 13:00:11;;;;;;;4.65;3.80;;;;;;;;;;5122158;27;20036;-77
2022/08/16 13:02:37;;;;;;;5.55;3.40;;;;;;;;;;5089430;28;20020;-79
2022/08/16 13:05:04;;;;;;;5.10;3.33;;;;;;;;;;5078776;28;20042;-77
2022/08/16 13:07:31;;;;;;;8.30;4.38;;;;;;;;;;5094952;28;20065;-78
2022/08/16 13:10:07;;;;;;;10.00;5.53;;;;;;;;;;5127078;27;20024;-77
2022/08/16 13:12:33;;;;;;;8.80;4.07;;;;;;;;;;5126193;27;20012;-77
2022/08/16 13:15:01;;;;;;;6.10;4.00;;;;;;;;;;5092730;28;20479;-79
2022/08/16 13:17:27;;;;;;;5.03;3.78;;;;;;;;;;5093244;28;20050;-79
2022/08/16 13:19:53;;;;;;;7.25;4.07;;;;;;;;;;5127138;27;20024;-78
2022/08/16 13:22:20;;;;;;;8.93;4.45;;;;;;;;;;5094153;28;20048;-78
2022/08/16 13:24:46;;;;;;;13.77;5.22;;;;;;;;;;5127012;27;20035;-77
2022/08/16 13:27:13;;;;;;;8.27;4.35;;;;;;;;;;5126855;27;20460;-77
2022/08/16 13:29:39;;;;;;;6.47;4.22;;;;;;;;;;5092869;28;20017;-78
2022/08/16 13:32:06;;;;;;;9.32;4.22;;;;;;;;;;5092360;28;20020;-78
2022/08/16 13:34:32;;;;;;;6.28;3.53;;;;;;;;;;5127089;27;20035;-79
2022/08/16 13:36:58;;;;;;;6.60;3.95;;;;;;;;;;5113349;27;20126;-79
2022/08/16 13:39:24;;;;;;;7.25;3.40;;;;;;;;;;5091502;28;20020;-79
2022/08/16 13:41:50;;;;;;;6.03;3.90;;;;;;;;;;5089063;28;20036;-78
2022/08/16 13:44:17;;;;;;;9.70;4.88;;;;;;;;;;5090966;28;20486;-79
2022/08/16 13:46:46;;;;;;;5.05;3.70;;;;;;;;;;5092545;28;20490;-78
2022/08/16 13:49:12;;;;;;;7.85;4.38;;;;;;;;;;5125326;27;20052;-77
2022/08/16 13:51:39;;;;;;;6.95;3.35;;;;;;;;;;5091024;28;20069;-76
2022/08/16 13:54:05;;;;;;;5.97;3.83;;;;;;;;;;5092491;28;20020;-77
2022/08/16 13:56:32;;;;;;;11.77;4.25;;;;;;;;;;5092122;28;20102;-76
2022/08/16 13:58:59;;;;;;;10.25;4.53;;;;;;;;;;5093898;28;20478;-77
2022/08/16 14:01:27;;;;;;;6.22;3.22;;;;;;;;;;5092547;28;20068;-78
2022/08/16 14:03:53;;;;;;;4.78;3.65;;;;;;;;;;5086536;28;20034;-77
2022/08/16 14:06:20;;;;;;;4.88;3.40;;;;;;;;;;5106410;27;20031;-77
2022/08/16 14:08:46;;;;;;;6.40;3.50;;;;;;;;;;5125182;27;20052;-77
2022/08/16 14:11:13;;;;;;;7.88;3.40;;;;;;;;;;5093173;28;20135;-79
2022/08/16 14:13:40;;;;;;;9.30;3.17;;;;;;;;;;5125755;27;20430;-78
2022/08/16 14:16:07;;;;;;;5.35;3.20;;;;;;;;;;5126046;27;20020;-78
2022/08/16 14:18:33;;;;;;;7.50;3.60;;;;;;;;;;5092894;28;20024;-78
2022/08/16 14:20:59;;;;;;;4.38;2.67;;;;;;;;;;5125530;27;20044;-78
2022/08/16 14:23:25;;;;;;;9.52;3.47;;;;;;;;;;5092616;28;20375;-78
2022/08/16 14:25:52;;;;;;;5.68;3.75;;;;;;;;;;5089562;28;20380;-78